Time;durP1;ratioP1;P1;durP2;ratioP2;P2;SDS_P1;SDS_P2;PMS_P1;PMS_P2;Temp;Humidity;BMP_temperature;BMP_pressure;BME280_temperature;BME280_humidity;BME280_pressure;Samples;Min_cycle;Max_cycle;Signal;HPM_P1;HPM_P2
2022/12/16 00:02:19;;;;;;;19.33;7.37;;;;;;;5.81;64.92;97832.66;4327578;33;20113;-84
2022/12/16 00:04:44;;;;;;;19.95;8.25;;;;;;;6.30;63.70;97828.37;4331858;33;20473;-86
2022/12/16 00:07:10;;;;;;;103.55;13.73;;;;;;;6.32;63.64;97827.44;4317618;33;20108;-85
2022/12/16 00:09:35;;;;;;;18.27;7.70;;;;;;;6.26;63.62;97816.41;4324593;33;20123;-86
2022/12/16 00:12:01;;;;;;;17.67;7.32;;;;;;;6.37;63.50;97807.97;4333884;33;20143;-84
2022/12/16 00:14:28;;;;;;;22.75;7.72;;;;;;;6.37;63.58;97812.38;4328595;33;20108;-88
2022/12/16 00:16:53;;;;;;;18.55;7.47;;;;;;;6.23;63.74;97807.88;4331584;33;20084;-82
2022/12/16 00:19:19;;;;;;;23.92;7.10;;;;;;;6.31;63.61;97803.06;4327792;33;20111;-86
2022/12/16 00:21:44;;;;;;;17.05;6.35;;;;;;;5.91;64.62;97790.28;4330741;33;20105;-86
2022/12/16 00:24:10;;;;;;;15.50;6.00;;;;;;;6.33;63.59;97806.44;4331071;33;20158;-83
2022/12/16 00:26:36;;;;;;;17.58;6.18;;;;;;;6.32;63.39;97796.94;4330861;33;20139;-83
2022/12/16 00:29:04;;;;;;;16.10;6.22;;;;;;;6.35;63.22;97796.75;4328001;33;20123;-83
2022/12/16 00:31:30;;;;;;;16.05;5.45;;;;;;;6.05;64.37;97802.69;4329985;33;20170;-83
2022/12/16 00:33:58;;;;;;;17.35;6.97;;;;;;;5.99;64.49;97808.22;4302626;33;20942;-78
2022/12/16 00:36:24;;;;;;;15.50;5.75;;;;;;;6.18;64.11;97802.91;4331836;33;20099;-79
2022/12/16 00:38:51;;;;;;;16.30;6.12;;;;;;;6.28;63.77;97795.41;4318186;33;20141;-85
2022/12/16 00:41:17;;;;;;;14.23;5.97;;;;;;;6.42;63.44;97802.50;4318416;33;20109;-83
2022/12/16 00:43:42;;;;;;;15.82;6.45;;;;;;;6.48;63.31;97799.56;4332505;33;20130;-84
2022/12/16 00:46:08;;;;;;;15.95;6.05;;;;;;;6.41;63.29;97803.41;4332554;33;20445;-84
2022/12/16 00:48:33;;;;;;;14.90;5.57;;;;;;;6.36;63.69;97802.84;4332227;33;20115;-88
2022/12/16 00:50:59;;;;;;;14.05;5.43;;;;;;;6.50;63.27;97801.16;4334894;33;20121;-86
2022/12/16 00:53:24;;;;;;;15.38;5.95;;;;;;;6.24;64.11;97799.09;4336138;33;20144;-88
2022/12/16 00:55:51;;;;;;;14.43;5.20;;;;;;;6.48;63.32;97799.56;4330207;33;20163;-82
2022/12/16 00:58:17;;;;;;;15.02;5.68;;;;;;;6.59;62.89;97799.00;4317565;33;20138;-81
2022/12/16 01:00:42;;;;;;;13.88;5.57;;;;;;;6.18;64.22;97788.94;4330599;33;20096;-81
2022/12/16 01:03:08;;;;;;;16.05;6.03;;;;;;;6.45;63.33;97781.41;4329935;33;20108;-81
2022/12/16 01:05:37;;;;;;;13.10;4.87;;;;;;;6.56;63.25;97784.28;4331064;33;20110;-80
2022/12/16 01:08:02;;;;;;;12.37;4.90;;;;;;;6.57;63.27;97778.13;4317768;33;20134;-81
2022/12/16 01:10:27;;;;;;;13.23;4.85;;;;;;;6.67;63.00;97768.84;4331125;33;20148;-81
2022/12/16 01:12:53;;;;;;;13.65;4.87;;;;;;;6.67;62.99;97761.00;4318540;33;20176;-80
2022/12/16 01:15:18;;;;;;;12.52;4.43;;;;;;;6.71;62.93;97756.44;4331973;33;20121;-80
2022/12/16 01:17:44;;;;;;;12.40;4.32;;;;;;;6.43;63.63;97749.25;4331307;33;20091;-81
2022/12/16 01:20:10;;;;;;;12.00;4.30;;;;;;;6.43;63.68;97744.87;4331307;33;20150;-81
2022/12/16 01:22:35;;;;;;;10.98;4.32;;;;;;;6.54;63.44;97744.28;4318006;33;20104;-80
2022/12/16 01:25:01;;;;;;;12.13;4.53;;;;;;;6.58;63.30;97730.09;4331371;33;20114;-80
2022/12/16 01:27:27;;;;;;;12.45;4.32;;;;;;;6.49;63.49;97730.63;4330511;33;20124;-82
2022/12/16 01:29:53;;;;;;;11.30;4.30;;;;;;;6.43;63.76;97723.94;4339668;33;20150;-82
2022/12/16 01:32:18;;;;;;;11.77;4.35;;;;;;;6.44;63.77;97724.78;4335502;33;20138;-84
2022/12/16 01:34:49;;;;;;;10.82;3.95;;;;;;;6.55;63.50;97722.44;4341089;33;20103;-84
2022/12/16 01:37:15;;;;;;;10.82;4.07;;;;;;;6.47;63.78;97711.50;4328100;33;20471;-84
2022/12/16 01:39:41;;;;;;;10.88;4.05;;;;;;;6.36;64.06;97695.59;4336079;33;20123;-83
2022/12/16 01:42:12;;;;;;;12.20;3.90;;;;;;;5.41;67.43;97699.69;4323529;33;20130;-84
2022/12/16 01:44:37;;;;;;;12.35;4.40;;;;;;;5.94;66.24;97694.34;4320637;33;20650;-83
2022/12/16 01:47:04;;;;;;;12.48;4.87;;;;;;;6.30;64.75;97676.69;4335184;33;20360;-83
2022/12/16 01:49:34;;;;;;;12.15;4.75;;;;;;;5.99;65.74;97684.50;4333748;33;20099;-84
2022/12/16 01:52:03;;;;;;;28.25;5.93;;;;;;;6.32;64.65;97667.91;4336124;33;20110;-84
2022/12/16 01:54:35;;;;;;;17.20;5.20;;;;;;;6.12;65.22;97663.78;4320453;33;20099;-84
2022/12/16 01:57:04;;;;;;;13.05;4.97;;;;;;;6.10;65.32;97654.25;4333836;33;20088;-85
2022/12/16 01:59:30;;;;;;;13.50;5.32;;;;;;;6.33;64.54;97657.34;4320648;33;20166;-84
2022/12/16 02:01:56;;;;;;;13.45;5.05;;;;;;;6.42;64.29;97656.00;4334063;33;20099;-84
2022/12/16 02:04:22;;;;;;;12.55;4.75;;;;;;;6.53;64.18;97645.78;4320608;33;20151;-84
2022/12/16 02:06:50;;;;;;;13.05;4.87;;;;;;;6.58;64.00;97635.06;4334071;33;20130;-85
2022/12/16 02:09:16;;;;;;;13.57;4.90;;;;;;;6.68;63.65;97625.75;4334125;33;20108;-85
2022/12/16 02:12:06;;;;;;;15.35;5.50;;;;;;;6.63;63.71;97619.94;4334065;33;20452;-86
2022/12/16 02:14:51;;;;;;;14.32;5.60;;;;;;;6.22;64.82;97599.56;4333854;33;20088;-85
2022/12/16 02:17:38;;;;;;;13.38;4.82;;;;;;;5.93;66.19;97599.41;4320215;33;20176;-86
2022/12/16 02:20:19;;;;;;;14.80;5.80;;;;;;;6.05;65.96;97588.28;4320361;33;20107;-86
2022/12/16 02:23:02;;;;;;;12.88;5.53;;;;;;;5.86;66.77;97579.75;4319167;33;20168;-85
2022/12/16 02:26:08;;;;;;;17.12;5.30;;;;;;;6.14;65.86;97555.53;4327053;33;20079;-85
2022/12/16 02:28:55;;;;;;;18.85;5.75;;;;;;;6.18;65.74;97549.25;4333585;33;20100;-84
2022/12/16 02:31:28;;;;;;;22.83;5.55;;;;;;;6.30;65.20;97537.22;4326235;33;20088;-84
2022/12/16 02:34:15;;;;;;;14.10;5.55;;;;;;;5.61;67.93;97533.22;4321102;33;20095;-84
2022/12/16 02:36:53;;;;;;;21.27;6.03;;;;;;;5.94;66.69;97529.66;4329360;33;20083;-83
2022/12/16 02:39:24;;;;;;;13.15;4.97;;;;;;;6.23;65.63;97530.66;4348436;33;20107;-83
2022/12/16 02:41:58;;;;;;;17.02;5.78;;;;;;;6.30;65.48;97530.22;4345142;33;20100;-84
2022/12/16 02:44:50;;;;;;;22.62;5.80;;;;;;;6.39;65.24;97514.91;4350668;33;20095;-84
2022/12/16 02:47:15;;;;;;;19.12;5.55;;;;;;;6.19;66.06;97535.22;4339789;33;20079;-85
2022/12/16 02:49:46;;;;;;;14.05;5.70;;;;;;;5.82;67.51;97528.59;4350365;33;20173;-86
2022/12/16 02:52:12;;;;;;;11.23;4.62;;;;;;;6.15;66.39;97532.88;4337016;33;20107;-85
2022/12/16 02:54:38;;;;;;;13.00;5.53;;;;;;;6.35;65.83;97540.41;4336933;33;20087;-84
2022/12/16 02:57:25;;;;;;;14.35;5.45;;;;;;;6.46;65.55;97539.81;4349135;33;20393;-85
2022/12/16 03:00:03;;;;;;;12.98;5.40;;;;;;;6.37;65.77;97556.00;4349214;33;20123;-84
2022/12/16 03:02:49;;;;;;;13.30;5.75;;;;;;;6.36;66.20;97552.56;4349264;33;20107;-85
2022/12/16 03:05:41;;;;;;;13.98;6.03;;;;;;;6.58;65.52;97543.47;4350414;33;20497;-85
2022/12/16 03:08:11;;;;;;;12.75;5.45;;;;;;;6.67;65.25;97529.84;4349251;33;20078;-85
2022/12/16 03:10:42;;;;;;;13.45;5.50;;;;;;;6.66;65.26;97525.53;4336758;33;20448;-84
2022/12/16 03:13:08;;;;;;;14.32;5.60;;;;;;;6.75;64.96;97511.91;4336954;33;20083;-84
2022/12/16 03:15:34;;;;;;;13.50;5.85;;;;;;;6.82;64.82;97510.63;4350347;33;20109;-86
2022/12/16 03:18:01;;;;;;;13.80;6.03;;;;;;;6.88;64.63;97509.41;4336916;33;20084;-84
2022/12/16 03:20:49;;;;;;;13.30;5.65;;;;;;;6.92;64.64;97489.12;4336857;33;20111;-85
2022/12/16 03:23:19;;;;;;;13.00;5.57;;;;;;;6.94;64.53;97469.78;4336820;33;20256;-85
2022/12/16 03:25:46;;;;;;;12.77;5.43;;;;;;;6.97;64.20;97442.56;4336896;33;20154;-85
2022/12/16 03:28:53;;;;;;;13.05;5.20;;;;;;;6.96;64.29;97449.56;4336753;33;20088;-85
2022/12/16 03:31:27;;;;;;;12.57;5.40;;;;;;;6.85;64.63;97489.47;4324375;33;20416;-85
2022/12/16 03:34:09;;;;;;;13.15;5.20;;;;;;;6.99;64.14;97459.00;4350294;33;20122;-85
2022/12/16 03:36:35;;;;;;;12.25;4.75;;;;;;;7.02;63.96;97464.06;4336820;33;20087;-85
2022/12/16 03:39:03;;;;;;;11.98;4.72;;;;;;;7.00;64.04;97479.88;4336771;33;20661;-84
2022/12/16 03:41:29;;;;;;;11.50;4.87;;;;;;;6.88;64.54;97475.38;4349087;33;20107;-83
2022/12/16 03:43:55;;;;;;;11.05;4.40;;;;;;;7.00;64.26;97484.28;4350043;33;20137;-85
2022/12/16 03:46:20;;;;;;;11.20;4.55;;;;;;;7.07;64.02;97483.81;4336610;33;20489;-85
2022/12/16 03:48:50;;;;;;;11.23;4.20;;;;;;;7.12;63.82;97472.19;4348871;33;20076;-85
2022/12/16 03:51:16;;;;;;;11.20;4.55;;;;;;;7.14;63.74;97486.88;4336551;33;20100;-85
2022/12/16 03:53:42;;;;;;;11.32;4.53;;;;;;;7.13;63.87;97487.81;4336035;33;20264;-84
2022/12/16 03:56:07;;;;;;;11.18;4.43;;;;;;;7.16;63.85;97485.00;4349849;33;20177;-84
2022/12/16 03:58:34;;;;;;;10.95;4.50;;;;;;;7.17;63.78;97476.22;4321422;33;20088;-84
2022/12/16 04:01:00;;;;;;;11.23;4.65;;;;;;;7.17;63.83;97470.97;4319402;33;20099;-84
2022/12/16 04:03:25;;;;;;;11.18;4.18;;;;;;;7.18;63.84;97458.72;4320475;33;20381;-84
2022/12/16 04:05:50;;;;;;;11.80;4.32;;;;;;;7.10;64.24;97456.56;4328597;33;20456;-84
2022/12/16 04:08:16;;;;;;;13.52;4.70;;;;;;;7.20;63.84;97441.13;4334012;33;20369;-83
2022/12/16 04:24:28;;;;;;;13.95;5.30;;;;;;;7.15;64.07;97420.47;4318424;33;20142;-83
2022/12/16 04:30:17;;;;;;;17.52;5.43;;;;;;;7.19;64.00;97416.72;4318124;33;20151;-84
2022/12/16 04:32:23;;;;;;;23.60;5.93;;;;;;;7.13;64.34;97409.25;4318120;33;20116;-85
2022/12/16 04:34:48;;;;;;;16.17;5.57;;;;;;;7.23;64.08;97415.59;4318204;33;20119;-84
